Terminal Aerodrome Forecast
Issued by NWS

Home | Current Version | Previous Version | Text Only | Print | Product List | Glossary Off
Versions: 1 2 3 4 5 6 7 8 9 10 11 12 13 14 15 16 17 18 19 20 21 22 23 24 25

245
FTUS43 KLOT 192055 AAA
TAFDPA
TAF AMD
KDPA 192055Z 1921/2018 21014G23KT P6SM SCT250
     FM200000 21016G27KT P6SM BKN250 WS020/23055KT
     FM200700 23011KT P6SM BKN250
     FM201700 24008KT P6SM BKN020=

USA.gov is the U.S. government's official web portal to all federal, state and local government web resources and services.